Skip Navigation LinksHome page > Weather > Current weather Skip Navigation Links

Current Weather

Metropolitan Oakland Intl, Oakland, Calif.

For information only: do not use for flight planning or navigation.
Latest weather
Observation time Tuesday, November 24, 2020 5:53 PM PST
Local time Tuesday, November 24, 2020 6:30 PM PST
Flight conditions Visual Meteorological Conditions
Winds
Wind direction Northwest (310°)
Wind speed 6 mph
Visibility 10 mi.
Sky condition
Ceiling unlimited
Cloud layer few clouds 1,000 ft.
Cloud layer few clouds 20,000 ft.
Temperature 55°F
Dewpoint 47°F
Altimeter 30.11 in.Hg
Derived measurements
Relative humidity 74%
Density altitude -315 ft.
Sea-level pressure 30.11 in.Hg
Remarks
Automated weather observing station with precipitation discriminator.
METAR KOAK 250153Z 31005KT 10SM FEW010 FEW200 13/08 A3011 RMK AO2 SLP195 T01280083

Settings

Location code

InnerDrive.Weather 4.0.6770.0 Release CLR 4.0.30319.42000
Copyright ©2018 Inner Drive Technology. All rights reserved. Portions Copyright ©1986-2018 David Braverman.

Find weather

Site navigation


Skip Navigation Links

Place info

Page info

PayPal - The safer, easier way to pay online!

Return home.

Copyright ©2020 Inner Drive Technology. Purveyors of fine, hand-crafted computer software. Page printed 2020-11-25T02:30:08 UTC.